Time;durP1;ratioP1;P1;durP2;ratioP2;P2;SDS_P1;SDS_P2;PMS_P1;PMS_P2;Temp;Humidity;BMP_temperature;BMP_pressure;BME280_temperature;BME280_humidity;BME280_pressure;Samples;Min_cycle;Max_cycle;Signal;HPM_P1;HPM_P2
2021/04/04 00:01:44;;;;;;;;;;;10.80;57.50;;;;;;4302728;33;44748;-76
2021/04/04 00:04:19;;;;;;;;;;;10.70;57.40;;;;;;4302776;33;31143;-76
2021/04/04 00:06:55;;;;;;;;;;;10.70;57.40;;;;;;4302632;33;44389;-76
2021/04/04 00:09:43;;;;;;;;;;;10.70;57.40;;;;;;4303018;33;42746;-77
2021/04/04 00:12:10;;;;;;;;;;;10.70;57.50;;;;;;4302713;33;36567;-76
2021/04/04 00:14:37;;;;;;;;;;;10.60;57.50;;;;;;4315898;33;42429;-76
2021/04/04 00:17:12;;;;;;;;;;;10.60;57.60;;;;;;4290892;33;31006;-76
2021/04/04 00:19:44;;;;;;;;;;;10.60;57.60;;;;;;4290076;33;43184;-76
2021/04/04 00:22:19;;;;;;;;;;;10.60;57.70;;;;;;4309700;33;44076;-76
2021/04/04 00:24:51;;;;;;;;;;;10.50;57.70;;;;;;4290523;33;42724;-76
2021/04/04 00:27:24;;;;;;;;;;;10.60;57.70;;;;;;4303725;33;20124;-76
2021/04/04 00:29:56;;;;;;;;;;;10.50;57.70;;;;;;4303682;33;43390;-76
2021/04/04 00:32:31;;;;;;;;;;;10.50;57.80;;;;;;4306810;33;20408;-76
2021/04/04 00:35:11;;;;;;;;;;;10.50;57.80;;;;;;4306540;33;20424;-76
2021/04/04 00:37:46;;;;;;;;;;;10.50;57.90;;;;;;4294295;33;20049;-76
2021/04/04 00:40:19;;;;;;;;;;;10.50;58.00;;;;;;4319495;33;20099;-76
2021/04/04 00:42:56;;;;;;;;;;;10.40;58.00;;;;;;4319414;33;20020;-76
2021/04/04 00:45:34;;;;;;;;;;;10.40;58.00;;;;;;4294013;33;20054;-76
2021/04/04 00:48:09;;;;;;;;;;;10.40;58.00;;;;;;4306352;33;20406;-77
2021/04/04 00:50:59;;;;;;;;;;;10.40;58.00;;;;;;4319396;33;20060;-76
2021/04/04 00:53:40;;;;;;;;;;;10.40;58.10;;;;;;4306253;33;20077;-76
2021/04/04 00:56:13;;;;;;;;;;;10.30;58.10;;;;;;4293550;33;20498;-76
2021/04/04 00:58:51;;;;;;;;;;;10.30;58.10;;;;;;4305851;33;20387;-75
2021/04/04 01:01:21;;;;;;;;;;;10.30;58.10;;;;;;4317922;33;43095;-76
2021/04/04 01:03:53;;;;;;;;;;;10.30;58.10;;;;;;4304418;33;43068;-76
2021/04/04 01:06:31;;;;;;;;;;;10.20;58.10;;;;;;4305379;33;20010;-76
2021/04/04 01:09:03;;;;;;;;;;;10.20;58.20;;;;;;4292054;33;46674;-76
2021/04/04 01:11:50;;;;;;;;;;;10.20;58.20;;;;;;4317817;33;20093;-76
2021/04/04 01:14:31;;;;;;;;;;;10.20;58.30;;;;;;4306042;33;20024;-76
2021/04/04 01:17:07;;;;;;;;;;;10.10;58.30;;;;;;4318799;33;20067;-76
2021/04/04 01:19:42;;;;;;;;;;;10.20;58.40;;;;;;4293588;33;20050;-76
2021/04/04 01:22:31;;;;;;;;;;;10.10;58.40;;;;;;4306108;33;20069;-76
2021/04/04 01:25:10;;;;;;;;;;;10.10;58.50;;;;;;4318559;33;20079;-76
2021/04/04 01:27:54;;;;;;;;;;;10.10;58.60;;;;;;4305731;33;20017;-76
2021/04/04 01:30:32;;;;;;;;;;;10.00;58.60;;;;;;4318172;33;20029;-76
2021/04/04 01:33:02;;;;;;;;;;;10.00;58.80;;;;;;4318732;33;20021;-76
2021/04/04 01:35:37;;;;;;;;;;;10.00;58.90;;;;;;4305615;33;20002;-76
2021/04/04 01:38:12;;;;;;;;;;;9.90;59.10;;;;;;4305422;33;20002;-76
2021/04/04 01:40:49;;;;;;;;;;;9.90;59.30;;;;;;4305287;33;20437;-76
2021/04/04 01:43:28;;;;;;;;;;;9.90;59.40;;;;;;4317378;33;20084;-76
2021/04/04 01:46:03;;;;;;;;;;;9.90;59.50;;;;;;4305398;33;20014;-76
2021/04/04 01:48:40;;;;;;;;;;;9.80;59.70;;;;;;4293312;33;20025;-76
2021/04/04 01:51:18;;;;;;;;;;;9.80;59.80;;;;;;4305165;33;20028;-76
2021/04/04 01:53:51;;;;;;;;;;;9.80;59.80;;;;;;4291687;33;45451;-76
2021/04/04 01:56:31;;;;;;;;;;;9.80;59.90;;;;;;4304438;33;43521;-76
2021/04/04 01:59:01;;;;;;;;;;;9.80;60.00;;;;;;4316028;33;35045;-76
2021/04/04 02:01:37;;;;;;;;;;;9.80;60.10;;;;;;4303942;33;37506;-76
2021/04/04 02:04:09;;;;;;;;;;;9.80;60.20;;;;;;4315811;33;44775;-76
2021/04/04 02:06:43;;;;;;;;;;;9.80;60.30;;;;;;4291786;33;35484;-76
2021/04/04 02:09:16;;;;;;;;;;;9.80;60.50;;;;;;4303814;33;43660;-76
2021/04/04 02:11:53;;;;;;;;;;;9.80;60.50;;;;;;4317029;33;32733;-76
2021/04/04 02:14:25;;;;;;;;;;;9.70;60.60;;;;;;4304045;33;34759;-76
2021/04/04 02:17:00;;;;;;;;;;;9.70;60.80;;;;;;4318234;33;20006;-76
2021/04/04 02:19:40;;;;;;;;;;;9.80;61.00;;;;;;4304174;33;20016;-76
2021/04/04 02:22:09;;;;;;;;;;;9.80;61.10;;;;;;4303451;33;42162;-76
2021/04/04 02:24:42;;;;;;;;;;;9.80;61.10;;;;;;4303752;33;33627;-76
2021/04/04 02:27:14;;;;;;;;;;;9.80;61.30;;;;;;4316937;33;36779;-76
2021/04/04 02:29:50;;;;;;;;;;;9.80;61.30;;;;;;4303740;33;19998;-76
2021/04/04 02:32:19;;;;;;;;;;;9.70;61.30;;;;;;4291456;33;37829;-76
2021/04/04 02:34:55;;;;;;;;;;;9.70;61.30;;;;;;4291589;33;33753;-76
2021/04/04 02:37:28;;;;;;;;;;;9.70;61.30;;;;;;4304692;33;20014;-77
2021/04/04 02:40:06;;;;;;;;;;;9.70;61.40;;;;;;4292741;33;20002;-76
2021/04/04 02:42:41;;;;;;;;;;;9.70;61.60;;;;;;4318012;33;20013;-76
2021/04/04 02:45:17;;;;;;;;;;;9.70;61.70;;;;;;4304199;33;20095;-76
2021/04/04 02:48:03;;;;;;;;;;;9.70;61.80;;;;;;4292458;33;20057;-76
2021/04/04 02:50:32;;;;;;;;;;;9.70;61.80;;;;;;4303156;33;41116;-76
2021/04/04 02:53:06;;;;;;;;;;;9.70;61.90;;;;;;4316458;33;20075;-76
2021/04/04 02:55:42;;;;;;;;;;;9.70;62.00;;;;;;4292348;33;20066;-76
2021/04/04 02:58:20;;;;;;;;;;;9.70;62.10;;;;;;4304472;33;20411;-76
2021/04/04 03:01:00;;;;;;;;;;;9.70;62.00;;;;;;4304517;33;20014;-76
2021/04/04 03:03:36;;;;;;;;;;;9.70;62.00;;;;;;4315552;33;20006;-76
2021/04/04 03:06:10;;;;;;;;;;;9.70;62.00;;;;;;4315175;33;44304;-76
2021/04/04 03:08:52;;;;;;;;;;;9.70;62.00;;;;;;4304156;33;20018;-76
2021/04/04 03:11:24;;;;;;;;;;;9.70;62.00;;;;;;4302758;33;38761;-76
2021/04/04 03:13:54;;;;;;;;;;;9.70;61.90;;;;;;4304495;33;20059;-76
2021/04/04 03:16:29;;;;;;;;;;;9.70;61.90;;;;;;4303588;33;20017;-76
2021/04/04 03:19:02;;;;;;;;;;;9.70;62.00;;;;;;4303350;33;44725;-76
2021/04/04 03:21:32;;;;;;;;;;;9.70;62.10;;;;;;4316344;33;20081;-76
2021/04/04 03:24:10;;;;;;;;;;;9.70;62.10;;;;;;4304519;33;20387;-76
2021/04/04 03:26:42;;;;;;;;;;;9.70;62.20;;;;;;4303230;33;39039;-76
2021/04/04 03:29:12;;;;;;;;;;;9.70;62.30;;;;;;4302901;33;44395;-76
2021/04/04 03:31:41;;;;;;;;;;;9.70;62.40;;;;;;4316159;33;20049;-76
2021/04/04 03:34:14;;;;;;;;;;;9.70;62.50;;;;;;4317233;33;20120;-76
2021/04/04 03:36:51;;;;;;;;;;;9.70;62.50;;;;;;4291934;33;20001;-76
2021/04/04 03:39:20;;;;;;;;;;;9.70;62.60;;;;;;4317444;33;20053;-76
2021/04/04 03:41:53;;;;;;;;;;;9.70;62.50;;;;;;4317097;33;20378;-76
2021/04/04 03:44:28;;;;;;;;;;;9.70;62.50;;;;;;4291131;33;23605;-76
2021/04/04 03:47:04;;;;;;;;;;;9.60;62.50;;;;;;4315527;33;42787;-76
2021/04/04 03:49:43;;;;;;;;;;;9.70;62.60;;;;;;4317333;33;20049;-76
2021/04/04 03:52:17;;;;;;;;;;;9.70;62.70;;;;;;4304191;33;20013;-76
2021/04/04 03:54:53;;;;;;;;;;;9.60;62.60;;;;;;4291808;33;20049;-76
2021/04/04 03:57:21;;;;;;;;;;;9.60;62.60;;;;;;4297666;33;40771;-76
2021/04/04 03:59:56;;;;;;;;;;;9.60;62.60;;;;;;4314970;33;20010;-75
2021/04/04 04:02:31;;;;;;;;;;;9.60;62.60;;;;;;4302800;33;26561;-76
2021/04/04 04:05:07;;;;;;;;;;;9.60;62.80;;;;;;4305304;33;20033;-76
2021/04/04 04:07:40;;;;;;;;;;;9.60;62.80;;;;;;4320162;33;20050;-76
2021/04/04 04:10:22;;;;;;;;;;;9.60;62.80;;;;;;4319908;33;20020;-76
2021/04/04 04:12:57;;;;;;;;;;;9.60;62.80;;;;;;4305833;33;34407;-76
2021/04/04 04:15:30;;;;;;;;;;;9.60;62.80;;;;;;4319604;33;20020;-76
2021/04/04 04:18:08;;;;;;;;;;;9.60;63.00;;;;;;4294614;33;20089;-76
2021/04/04 04:20:43;;;;;;;;;;;9.60;63.00;;;;;;4306723;33;20103;-76
2021/04/04 04:23:15;;;;;;;;;;;9.60;63.00;;;;;;4306251;33;20395;-76
2021/04/04 04:25:52;;;;;;;;;;;9.50;63.00;;;;;;4292930;33;20061;-76
2021/04/04 04:28:23;;;;;;;;;;;9.50;63.10;;;;;;4290193;33;44505;-76
2021/04/04 04:31:08;;;;;;;;;;;9.50;63.10;;;;;;4290265;33;44463;-76
2021/04/04 04:33:42;;;;;;;;;;;9.50;63.20;;;;;;4290884;33;43697;-76
2021/04/04 04:36:15;;;;;;;;;;;9.50;63.30;;;;;;4278656;33;42714;-77
2021/04/04 04:38:48;;;;;;;;;;;9.50;63.40;;;;;;4279554;33;20006;-76
2021/04/04 04:41:22;;;;;;;;;;;9.50;63.40;;;;;;4291782;33;20025;-77
2021/04/04 04:44:05;;;;;;;;;;;9.50;63.40;;;;;;4290232;33;39727;-76
2021/04/04 04:46:42;;;;;;;;;;;9.50;63.40;;;;;;4279855;33;20006;-76
2021/04/04 04:49:15;;;;;;;;;;;9.50;63.30;;;;;;4304767;33;20077;-76
2021/04/04 04:51:50;;;;;;;;;;;9.50;63.30;;;;;;4292134;33;20451;-76
2021/04/04 04:54:26;;;;;;;;;;;9.50;63.30;;;;;;4292147;33;20014;-76
2021/04/04 04:57:01;;;;;;;;;;;9.50;63.30;;;;;;4291376;33;20025;-76
2021/04/04 04:59:37;;;;;;;;;;;9.40;63.30;;;;;;4291421;33;20066;-77
2021/04/04 05:02:10;;;;;;;;;;;9.50;63.40;;;;;;4278831;33;20367;-76
2021/04/04 05:04:42;;;;;;;;;;;9.40;63.40;;;;;;4291516;33;20402;-76
2021/04/04 05:07:22;;;;;;;;;;;9.40;63.40;;;;;;4291491;33;20018;-76
2021/04/04 05:09:55;;;;;;;;;;;9.40;63.30;;;;;;4290199;33;43584;-76
2021/04/04 05:12:28;;;;;;;;;;;9.40;63.30;;;;;;4278914;33;20002;-76
2021/04/04 05:15:06;;;;;;;;;;;9.40;63.40;;;;;;4304611;33;20021;-77
2021/04/04 05:17:41;;;;;;;;;;;9.30;63.50;;;;;;4277546;33;43387;-76
2021/04/04 05:20:12;;;;;;;;;;;9.30;63.60;;;;;;4277656;33;43372;-76
2021/04/04 05:22:44;;;;;;;;;;;9.30;63.70;;;;;;4278086;33;45623;-76
2021/04/04 05:25:17;;;;;;;;;;;9.30;63.70;;;;;;4303278;33;38693;-75
2021/04/04 05:27:49;;;;;;;;;;;9.30;63.80;;;;;;4290853;33;20470;-76
2021/04/04 05:30:18;;;;;;;;;;;9.30;63.80;;;;;;4303483;33;33722;-76
2021/04/04 05:32:52;;;;;;;;;;;9.30;64.00;;;;;;4291264;33;20021;-76
2021/04/04 05:35:27;;;;;;;;;;;9.30;64.00;;;;;;4291201;33;20510;-76
2021/04/04 05:38:06;;;;;;;;;;;9.20;64.20;;;;;;4303194;33;25668;-76
2021/04/04 05:40:35;;;;;;;;;;;9.20;64.30;;;;;;4277715;33;39675;-76
2021/04/04 05:43:21;;;;;;;;;;;9.20;64.40;;;;;;4289886;33;32539;-76
2021/04/04 05:45:59;;;;;;;;;;;9.20;64.50;;;;;;4289913;33;34694;-76
2021/04/04 05:48:37;;;;;;;;;;;9.20;64.60;;;;;;4289472;33;42447;-76
2021/04/04 05:51:22;;;;;;;;;;;9.20;64.60;;;;;;4303584;33;20451;-76
2021/04/04 05:54:10;;;;;;;;;;;9.20;64.70;;;;;;4291005;33;20010;-76
2021/04/04 05:56:49;;;;;;;;;;;9.10;64.60;;;;;;4303382;33;20070;-76
2021/04/04 05:59:35;;;;;;;;;;;9.20;64.70;;;;;;4290900;33;20380;-76
2021/04/04 06:02:10;;;;;;;;;;;9.20;64.60;;;;;;4290503;33;20009;-76
2021/04/04 06:05:01;;;;;;;;;;;9.10;64.60;;;;;;4303930;33;20006;-76
2021/04/04 06:07:43;;;;;;;;;;;9.10;64.70;;;;;;4290934;33;20027;-76
2021/04/04 06:10:27;;;;;;;;;;;9.20;64.80;;;;;;4290403;33;20010;-76
2021/04/04 06:13:06;;;;;;;;;;;9.20;64.80;;;;;;4278291;33;20403;-76
2021/04/04 06:16:08;;;;;;;;;;;9.20;64.80;;;;;;4291198;33;20024;-77
2021/04/04 06:19:04;;;;;;;;;;;9.20;64.80;;;;;;4290854;33;20062;-76
2021/04/04 06:21:49;;;;;;;;;;;9.20;64.90;;;;;;4289235;33;27575;-76
2021/04/04 06:24:39;;;;;;;;;;;9.20;64.80;;;;;;4301934;33;44105;-76
2021/04/04 06:27:26;;;;;;;;;;;9.20;64.80;;;;;;4276966;33;35210;-76
2021/04/04 06:30:46;;;;;;;;;;;9.20;64.70;;;;;;4289286;33;38673;-76
2021/04/04 06:33:21;;;;;;;;;;;9.20;64.60;;;;;;4301792;33;37200;-76
2021/04/04 06:35:50;;;;;;;;;;;9.20;64.50;;;;;;4276730;33;44775;-76
2021/04/04 06:38:41;;;;;;;;;;;9.20;64.30;;;;;;4277371;33;20009;-76
2021/04/04 06:41:20;;;;;;;;;;;9.20;64.40;;;;;;4278152;33;20367;-76
2021/04/04 06:44:13;;;;;;;;;;;9.20;64.30;;;;;;4277869;33;20016;-77
2021/04/04 06:46:45;;;;;;;;;;;9.20;64.10;;;;;;4289748;33;20002;-77
2021/04/04 06:49:36;;;;;;;;;;;9.20;64.10;;;;;;4303128;33;20408;-76
2021/04/04 06:52:17;;;;;;;;;;;9.20;64.10;;;;;;4282212;33;40428;-76
2021/04/04 06:55:01;;;;;;;;;;;9.20;64.00;;;;;;4288647;33;45911;-76
2021/04/04 06:57:33;;;;;;;;;;;9.20;64.10;;;;;;4302035;33;44218;-76
2021/04/04 07:00:04;;;;;;;;;;;9.20;63.90;;;;;;4312635;33;20026;-76
2021/04/04 07:02:44;;;;;;;;;;;9.10;63.90;;;;;;4315242;33;20079;-76
2021/04/04 07:05:12;;;;;;;;;;;9.10;63.90;;;;;;4316941;33;20321;-77
2021/04/04 07:07:58;;;;;;;;;;;9.10;63.90;;;;;;4316435;33;20087;-76
2021/04/04 07:10:33;;;;;;;;;;;9.20;64.00;;;;;;4304147;33;20016;-76
2021/04/04 07:13:06;;;;;;;;;;;9.20;63.90;;;;;;4302896;33;20370;-76
2021/04/04 07:15:39;;;;;;;;;;;9.20;64.00;;;;;;4289584;33;20022;-76
2021/04/04 07:18:28;;;;;;;;;;;9.20;63.80;;;;;;4303181;33;20073;-76
2021/04/04 07:21:21;;;;;;;;;;;9.10;63.50;;;;;;4315986;33;20054;-77
2021/04/04 07:24:10;;;;;;;;;;;9.20;63.80;;;;;;4303932;33;20033;-76
2021/04/04 07:27:05;;;;;;;;;;;9.10;63.70;;;;;;4304385;33;20121;-77
2021/04/04 07:29:48;;;;;;;;;;;9.10;63.50;;;;;;4298523;33;20050;-76
2021/04/04 07:32:28;;;;;;;;;;;9.10;63.70;;;;;;4292429;33;20065;-76
2021/04/04 07:35:20;;;;;;;;;;;9.10;63.90;;;;;;4292592;33;20013;-76
2021/04/04 07:37:56;;;;;;;;;;;9.10;63.80;;;;;;4303811;33;20002;-76
2021/04/04 07:40:32;;;;;;;;;;;9.10;63.70;;;;;;4293987;33;20040;-77
2021/04/04 07:43:10;;;;;;;;;;;9.10;63.80;;;;;;4320545;33;20061;-76
2021/04/04 07:45:56;;;;;;;;;;;9.10;63.90;;;;;;4294732;33;20455;-76
2021/04/04 07:48:32;;;;;;;;;;;9.10;63.90;;;;;;4306148;33;37897;-76
2021/04/04 07:51:09;;;;;;;;;;;9.20;63.80;;;;;;4319168;33;25244;-76
2021/04/04 07:53:41;;;;;;;;;;;9.20;63.90;;;;;;4305312;33;43733;-76
2021/04/04 07:56:14;;;;;;;;;;;9.10;63.90;;;;;;4305790;33;29478;-76
2021/04/04 07:59:01;;;;;;;;;;;9.10;63.90;;;;;;4305771;33;44679;-77
2021/04/04 08:01:41;;;;;;;;;;;9.10;63.90;;;;;;4286034;33;38430;-76
2021/04/04 08:04:13;;;;;;;;;;;9.10;63.90;;;;;;4317576;33;36384;-77
2021/04/04 08:06:51;;;;;;;;;;;9.10;63.90;;;;;;4320013;33;20117;-76
2021/04/04 08:09:35;;;;;;;;;;;9.10;64.00;;;;;;4318945;33;20066;-76
2021/04/04 08:12:07;;;;;;;;;;;9.10;63.90;;;;;;4305520;33;43221;-76
2021/04/04 08:14:50;;;;;;;;;;;9.10;63.90;;;;;;4306798;33;20009;-76
2021/04/04 08:17:27;;;;;;;;;;;9.10;64.00;;;;;;4306766;33;20010;-77
2021/04/04 08:20:05;;;;;;;;;;;9.20;64.00;;;;;;4294037;33;20006;-77
2021/04/04 08:22:43;;;;;;;;;;;9.20;64.10;;;;;;4306683;33;20057;-77
2021/04/04 08:25:20;;;;;;;;;;;9.20;64.20;;;;;;4306679;33;20257;-76
2021/04/04 08:28:00;;;;;;;;;;;9.20;64.30;;;;;;4306701;33;20014;-77
2021/04/04 08:30:45;;;;;;;;;;;9.10;64.20;;;;;;4319549;33;20351;-77
2021/04/04 08:33:15;;;;;;;;;;;9.20;64.30;;;;;;4306710;33;20014;-76
2021/04/04 08:35:50;;;;;;;;;;;9.10;64.20;;;;;;4292623;33;44517;-77
2021/04/04 08:38:26;;;;;;;;;;;9.20;64.40;;;;;;4292782;33;43098;-77
2021/04/04 08:40:57;;;;;;;;;;;9.10;64.30;;;;;;4305435;33;28533;-76
2021/04/04 08:43:27;;;;;;;;;;;9.20;64.40;;;;;;4318039;33;41889;-77
2021/04/04 08:46:00;;;;;;;;;;;9.10;64.20;;;;;;4304986;33;25245;-76
2021/04/04 08:48:36;;;;;;;;;;;9.10;64.40;;;;;;4293886;33;20012;-77
2021/04/04 08:51:17;;;;;;;;;;;9.10;64.40;;;;;;4304791;33;23034;-77
2021/04/04 08:53:51;;;;;;;;;;;9.10;64.40;;;;;;4305026;33;44319;-77
2021/04/04 08:56:31;;;;;;;;;;;9.20;64.50;;;;;;4317743;33;22958;-76
2021/04/04 08:59:09;;;;;;;;;;;9.20;64.50;;;;;;4316981;33;38706;-76
2021/04/04 09:01:41;;;;;;;;;;;9.20;64.40;;;;;;4317556;33;20103;-77
2021/04/04 09:04:10;;;;;;;;;;;9.20;64.60;;;;;;4291373;33;20016;-77
2021/04/04 09:06:48;;;;;;;;;;;9.20;64.50;;;;;;4304090;33;20024;-77
2021/04/04 09:09:25;;;;;;;;;;;9.20;64.50;;;;;;4297596;33;43575;-77
2021/04/04 09:12:03;;;;;;;;;;;9.20;64.50;;;;;;4291601;33;20408;-76
2021/04/04 09:14:49;;;;;;;;;;;9.20;64.50;;;;;;4277738;33;45018;-76
2021/04/04 09:17:20;;;;;;;;;;;9.20;64.40;;;;;;4277923;33;41243;-76
2021/04/04 09:20:05;;;;;;;;;;;9.20;64.40;;;;;;4304222;33;20036;-77
2021/04/04 09:22:38;;;;;;;;;;;9.20;64.40;;;;;;4277684;33;45515;-76
2021/04/04 09:25:11;;;;;;;;;;;9.20;64.50;;;;;;4290074;33;39683;-77
2021/04/04 09:27:44;;;;;;;;;;;9.30;64.50;;;;;;4279057;33;19995;-76
2021/04/04 09:30:39;;;;;;;;;;;9.30;64.30;;;;;;4279608;33;20010;-76
2021/04/04 09:33:17;;;;;;;;;;;9.30;64.40;;;;;;4289670;33;44953;-77
2021/04/04 09:35:57;;;;;;;;;;;9.30;64.40;;;;;;4279134;33;20404;-76
2021/04/04 09:38:34;;;;;;;;;;;9.30;64.40;;;;;;4291077;33;20018;-76
2021/04/04 09:41:05;;;;;;;;;;;9.30;64.30;;;;;;4302326;33;26287;-77
2021/04/04 09:43:52;;;;;;;;;;;9.30;64.30;;;;;;4303589;33;20011;-76
2021/04/04 09:46:27;;;;;;;;;;;9.30;64.30;;;;;;4290676;33;20020;-76
2021/04/04 09:49:02;;;;;;;;;;;9.30;64.40;;;;;;4303755;33;20029;-77
2021/04/04 09:51:45;;;;;;;;;;;9.30;64.40;;;;;;4278468;33;19991;-77
2021/04/04 09:54:24;;;;;;;;;;;9.30;64.40;;;;;;4304022;33;20010;-77
2021/04/04 09:57:00;;;;;;;;;;;9.30;64.30;;;;;;4277380;33;44973;-77
2021/04/04 09:59:35;;;;;;;;;;;9.30;64.20;;;;;;4290449;33;20050;-76
2021/04/04 10:02:10;;;;;;;;;;;9.30;64.30;;;;;;4291886;33;44106;-77
2021/04/04 10:04:49;;;;;;;;;;;9.20;64.50;;;;;;4317427;33;20026;-77
2021/04/04 10:07:34;;;;;;;;;;;9.30;64.60;;;;;;4303580;33;43831;-77
2021/04/04 10:10:07;;;;;;;;;;;9.30;64.60;;;;;;4303950;33;44658;-76
2021/04/04 10:12:57;;;;;;;;;;;9.30;64.50;;;;;;4303892;33;29297;-76
2021/04/04 10:15:29;;;;;;;;;;;9.30;64.40;;;;;;4317455;33;20494;-76
2021/04/04 10:18:12;;;;;;;;;;;9.30;64.40;;;;;;4293610;33;20012;-76
2021/04/04 10:20:45;;;;;;;;;;;9.30;64.40;;;;;;4317033;33;44295;-76
2021/04/04 10:23:20;;;;;;;;;;;9.30;64.50;;;;;;4305072;33;20050;-76
2021/04/04 10:25:59;;;;;;;;;;;9.30;64.50;;;;;;4292690;33;20020;-76
2021/04/04 10:28:41;;;;;;;;;;;9.30;64.50;;;;;;4305023;33;20420;-77
2021/04/04 10:31:19;;;;;;;;;;;9.40;64.50;;;;;;4317551;33;20067;-76
2021/04/04 10:34:05;;;;;;;;;;;9.30;64.40;;;;;;4317674;33;20014;-76
2021/04/04 10:36:43;;;;;;;;;;;9.40;64.60;;;;;;4316877;33;20013;-77
2021/04/04 10:39:27;;;;;;;;;;;9.40;64.40;;;;;;4304938;33;20053;-76
2021/04/04 10:41:59;;;;;;;;;;;9.40;64.50;;;;;;4317031;33;29528;-76
2021/04/04 10:44:36;;;;;;;;;;;9.40;64.70;;;;;;4317846;33;20020;-77
2021/04/04 10:47:22;;;;;;;;;;;9.40;64.80;;;;;;4317676;33;20069;-76
2021/04/04 10:49:58;;;;;;;;;;;9.40;64.70;;;;;;4292461;33;20037;-76
2021/04/04 10:52:28;;;;;;;;;;;9.40;64.70;;;;;;4304174;33;20025;-76
2021/04/04 10:55:02;;;;;;;;;;;9.40;64.70;;;;;;4303700;33;31944;-76
2021/04/04 10:57:37;;;;;;;;;;;9.40;64.60;;;;;;4315379;33;44619;-77
2021/04/04 11:00:10;;;;;;;;;;;9.40;65.50;;;;;;4316621;33;37259;-76
2021/04/04 11:02:43;;;;;;;;;;;9.40;64.70;;;;;;4316313;33;33168;-76
2021/04/04 11:05:16;;;;;;;;;;;9.40;64.60;;;;;;4303933;33;20041;-76
2021/04/04 11:07:48;;;;;;;;;;;9.40;64.60;;;;;;4304459;33;20053;-77
2021/04/04 11:10:23;;;;;;;;;;;9.40;64.70;;;;;;4315544;33;38529;-77
2021/04/04 11:13:00;;;;;;;;;;;9.50;64.80;;;;;;4304411;33;20019;-76
2021/04/04 11:15:39;;;;;;;;;;;9.50;64.80;;;;;;4302892;33;44723;-77
2021/04/04 11:18:35;;;;;;;;;;;9.50;64.80;;;;;;4303335;33;37814;-77
2021/04/04 11:21:12;;;;;;;;;;;9.50;64.90;;;;;;4290058;33;33033;-76
2021/04/04 11:23:44;;;;;;;;;;;9.50;64.60;;;;;;4317034;33;20052;-77
2021/04/04 11:26:32;;;;;;;;;;;9.50;64.50;;;;;;4317409;33;20018;-76
2021/04/04 11:29:16;;;;;;;;;;;9.50;64.60;;;;;;4290744;33;44652;-76
2021/04/04 11:32:03;;;;;;;;;;;9.50;64.70;;;;;;4317448;33;20002;-76
2021/04/04 11:34:40;;;;;;;;;;;9.50;64.70;;;;;;4294465;33;20057;-77
2021/04/04 11:37:12;;;;;;;;;;;9.50;64.50;;;;;;4316935;33;22517;-76
2021/04/04 11:40:02;;;;;;;;;;;9.50;64.40;;;;;;4303024;33;26678;-76
2021/04/04 11:42:37;;;;;;;;;;;9.50;64.50;;;;;;4303859;33;20014;-76
2021/04/04 11:45:14;;;;;;;;;;;9.50;64.70;;;;;;4317297;33;20391;-76
2021/04/04 11:47:52;;;;;;;;;;;9.50;64.80;;;;;;4304142;33;20087;-76
2021/04/04 11:50:32;;;;;;;;;;;9.60;64.60;;;;;;4292045;33;20062;-76
2021/04/04 11:53:19;;;;;;;;;;;9.60;64.50;;;;;;4303686;33;20028;-76
2021/04/04 11:55:58;;;;;;;;;;;9.60;64.60;;;;;;4316543;33;19999;-76
2021/04/04 11:58:35;;;;;;;;;;;9.60;64.50;;;;;;4303834;33;20053;-76
2021/04/04 12:01:08;;;;;;;;;;;9.60;64.50;;;;;;4317210;33;20028;-76
2021/04/04 12:03:51;;;;;;;;;;;9.60;64.40;;;;;;4304050;33;20463;-77
2021/04/04 12:06:21;;;;;;;;;;;9.50;64.40;;;;;;4304270;33;20014;-76
2021/04/04 12:08:58;;;;;;;;;;;9.50;64.50;;;;;;4315875;33;20009;-76
2021/04/04 12:11:39;;;;;;;;;;;9.50;64.60;;;;;;4315924;33;20022;-76
2021/04/04 12:14:17;;;;;;;;;;;9.40;64.80;;;;;;4291693;33;20012;-76
2021/04/04 12:16:50;;;;;;;;;;;9.50;64.80;;;;;;4291990;33;20034;-76
2021/04/04 12:19:41;;;;;;;;;;;9.50;64.70;;;;;;4291615;33;20037;-76
2021/04/04 12:22:16;;;;;;;;;;;9.50;64.70;;;;;;4291811;33;20494;-77
2021/04/04 12:24:55;;;;;;;;;;;9.50;64.60;;;;;;4317049;33;20364;-77
2021/04/04 12:27:30;;;;;;;;;;;9.50;64.70;;;;;;4306655;33;20057;-76
2021/04/04 12:30:14;;;;;;;;;;;9.50;64.70;;;;;;4306786;33;20048;-76
2021/04/04 12:32:51;;;;;;;;;;;9.50;64.70;;;;;;4319646;33;20106;-76
2021/04/04 12:35:27;;;;;;;;;;;9.60;64.80;;;;;;4306536;33;20014;-76
2021/04/04 12:38:05;;;;;;;;;;;9.50;64.50;;;;;;4306107;33;20061;-77
2021/04/04 12:40:42;;;;;;;;;;;9.50;64.70;;;;;;4306390;33;20099;-77
2021/04/04 12:43:18;;;;;;;;;;;9.60;64.70;;;;;;4319521;33;20014;-77
2021/04/04 12:46:02;;;;;;;;;;;9.60;64.90;;;;;;4306798;33;20006;-77
2021/04/04 12:48:43;;;;;;;;;;;9.50;64.70;;;;;;4306522;33;20077;-76
2021/04/04 12:51:20;;;;;;;;;;;9.50;64.70;;;;;;4306860;33;20002;-77
2021/04/04 12:53:52;;;;;;;;;;;9.60;64.90;;;;;;4294253;33;20012;-76
2021/04/04 12:56:40;;;;;;;;;;;9.60;65.00;;;;;;4294222;33;20067;-77
2021/04/04 12:59:17;;;;;;;;;;;9.60;64.80;;;;;;4318281;33;20447;-77
2021/04/04 13:01:53;;;;;;;;;;;9.60;64.70;;;;;;4305727;33;20012;-77
2021/04/04 13:04:25;;;;;;;;;;;9.60;64.90;;;;;;4318379;33;20463;-77
2021/04/04 13:07:00;;;;;;;;;;;9.60;65.10;;;;;;4305023;33;26330;-77
2021/04/04 13:09:29;;;;;;;;;;;9.70;64.90;;;;;;4292362;33;45377;-77
2021/04/04 13:12:04;;;;;;;;;;;9.70;64.70;;;;;;4305906;33;20018;-77
2021/04/04 13:14:36;;;;;;;;;;;9.70;64.70;;;;;;4305029;33;35693;-77
2021/04/04 13:17:15;;;;;;;;;;;9.60;64.70;;;;;;4304902;33;43203;-78
2021/04/04 13:19:47;;;;;;;;;;;9.70;64.90;;;;;;4304633;33;43021;-77
2021/04/04 13:22:25;;;;;;;;;;;9.70;64.90;;;;;;4298376;33;23020;-77
2021/04/04 13:25:03;;;;;;;;;;;9.70;64.90;;;;;;4278712;33;20137;-77
2021/04/04 13:27:45;;;;;;;;;;;9.80;64.90;;;;;;4304274;33;20424;-77
2021/04/04 13:30:32;;;;;;;;;;;9.80;64.80;;;;;;4291121;33;20114;-78
2021/04/04 13:33:19;;;;;;;;;;;9.80;64.70;;;;;;4279372;33;20039;-77
2021/04/04 13:35:51;;;;;;;;;;;9.80;64.70;;;;;;4291026;33;20037;-77
2021/04/04 13:38:30;;;;;;;;;;;9.80;64.60;;;;;;4303532;33;20005;-77
2021/04/04 13:41:03;;;;;;;;;;;9.80;64.40;;;;;;4290104;33;40383;-77
2021/04/04 13:43:46;;;;;;;;;;;9.80;64.90;;;;;;4279769;33;20002;-77
2021/04/04 13:46:26;;;;;;;;;;;9.90;64.60;;;;;;4289788;33;44023;-77
2021/04/04 13:49:02;;;;;;;;;;;9.90;64.50;;;;;;4289457;33;38995;-77
2021/04/04 13:51:29;;;;;;;;;;;9.90;64.70;;;;;;4290035;33;33793;-77
2021/04/04 13:53:59;;;;;;;;;;;9.90;64.60;;;;;;4303912;33;20042;-77
2021/04/04 13:56:39;;;;;;;;;;;9.90;64.40;;;;;;4303519;33;20057;-77
2021/04/04 13:59:33;;;;;;;;;;;9.90;64.60;;;;;;4293848;33;20499;-78
2021/04/04 14:02:06;;;;;;;;;;;10.00;64.80;;;;;;4290570;33;20144;-77
2021/04/04 14:04:39;;;;;;;;;;;9.90;64.70;;;;;;4289095;33;44626;-78
2021/04/04 14:07:18;;;;;;;;;;;9.90;64.40;;;;;;4289771;33;44354;-78
2021/04/04 14:09:51;;;;;;;;;;;9.90;64.40;;;;;;4290637;33;20400;-77
2021/04/04 14:12:25;;;;;;;;;;;9.90;64.50;;;;;;4278417;33;20002;-77
2021/04/04 14:15:01;;;;;;;;;;;10.00;64.80;;;;;;4290640;33;20061;-77
2021/04/04 14:17:33;;;;;;;;;;;10.00;64.90;;;;;;4289410;33;42905;-77
2021/04/04 14:20:09;;;;;;;;;;;10.00;64.90;;;;;;4277105;33;41616;-77
2021/04/04 14:22:41;;;;;;;;;;;10.10;64.90;;;;;;4302347;33;43764;-77
2021/04/04 14:25:14;;;;;;;;;;;10.10;64.90;;;;;;4289533;33;45078;-77
2021/04/04 14:27:49;;;;;;;;;;;10.20;65.00;;;;;;4277196;33;42554;-77
2021/04/04 14:30:19;;;;;;;;;;;10.20;64.80;;;;;;4289247;33;40289;-77
2021/04/04 14:32:54;;;;;;;;;;;10.20;64.60;;;;;;4302557;33;35324;-77
2021/04/04 14:35:27;;;;;;;;;;;10.20;64.60;;;;;;4289450;33;36270;-77
2021/04/04 14:37:53;;;;;;;;;;;10.30;64.60;;;;;;4295781;33;20021;-77
2021/04/04 14:40:20;;;;;;;;;;;10.30;64.60;;;;;;4286717;33;43413;-76
2021/04/04 14:42:46;;;;;;;;;;;10.30;64.60;;;;;;4275084;33;19994;-77
2021/04/04 14:45:14;;;;;;;;;;;10.40;64.70;;;;;;4274832;33;20042;-77
2021/04/04 14:47:40;;;;;;;;;;;10.40;64.70;;;;;;4286430;33;23476;-77
2021/04/04 14:50:07;;;;;;;;;;;10.40;64.60;;;;;;4275242;33;20388;-77
2021/04/04 14:52:36;;;;;;;;;;;10.40;64.70;;;;;;4275218;33;20021;-77
2021/04/04 14:55:06;;;;;;;;;;;10.40;64.70;;;;;;4288109;33;20017;-77
2021/04/04 14:57:42;;;;;;;;;;;10.50;64.60;;;;;;4275019;33;20476;-78
2021/04/04 15:00:42;;;;;;;;;;;10.50;64.60;;;;;;4292608;33;20026;-77
2021/04/04 15:03:18;;;;;;;;;;;10.50;64.50;;;;;;4263077;33;41821;-77
2021/04/04 15:05:46;;;;;;;;;;;10.50;64.30;;;;;;4285676;33;39456;-77
2021/04/04 15:08:23;;;;;;;;;;;10.60;64.40;;;;;;4273897;33;41978;-77
2021/04/04 15:11:04;;;;;;;;;;;10.60;64.30;;;;;;4264705;33;20475;-77
2021/04/04 15:13:32;;;;;;;;;;;10.60;65.10;;;;;;4274602;33;39596;-77
2021/04/04 15:15:58;;;;;;;;;;;10.60;64.30;;;;;;4286736;33;44419;-77
2021/04/04 15:18:25;;;;;;;;;;;10.60;64.30;;;;;;4287205;33;44336;-77
2021/04/04 15:20:52;;;;;;;;;;;10.70;64.30;;;;;;4273985;33;43079;-77
2021/04/04 15:23:19;;;;;;;;;;;10.70;64.20;;;;;;4261885;33;44814;-77
2021/04/04 15:25:50;;;;;;;;;;;10.70;64.10;;;;;;4274165;33;44305;-77